チャーチル の空港の天気 - METARとTAF

チャーチル空港 ( CYYQ / YYQ ) - カナダ マニトバ州Churchill
飛行場実況気象(Metar)
観測時間08/25 14:00 CDT (08/25 19:00 UTC)
風向・風速北北西 4m/s
視程2400m
天気現象弱い霧雨 もや
全天を覆う雲 雲底高度 180m
気温11℃
湿度100%
気圧1004.7hPa
METARCYYQ 251900Z 34008KT 1 1/2SM -DZ BR OVC006 11/11 A2966 RMK ST8 VIS VRB 1-2 SLP047
過去の天気等 Google飛行場航空写真 Wunderground天気予報

過去48時間のMETAR

飛行場予報(TAF)
発表時間: 8/25 13:42 CDT (8/25 18:42 UTC)
予報対象時間: 25日13時 CDT ~ 26日13時 CDT
風向・風速北西 4m/s
視程10km以上
全天を覆う雲 雲底高度 300m
25日13時 CDT ~ 25日16時 CDT に一時的に
視程1610m
天気現象もや
全天を覆う雲 雲底高度 240m
25日16時 CDT から
風向・風速北 5m/s
視程10km以上
少しの雲 雲底高度 240m
全天の8割程度の雲 雲底高度 760m
全天を覆う雲 雲底高度 5490m
25日16時 CDT ~ 25日23時 CDT に一時的に
全天の8割程度の雲 雲底高度 240m
全天を覆う雲 雲底高度 760m
25日23時 CDT から
風向・風速北東 6m/s
視程3220m
天気現象弱い霧雨 もや
全天を覆う雲 雲底高度 150m
25日23時 CDT ~ 26日9時 CDT に一時的に
視程10km以上
天気現象運行に影響にある天気現象が終了
全天を覆う雲 雲底高度 240m
26日1時 CDT から 確率 30% で
視程800m
天気現象弱い霧雨 霧
全天を覆う雲 雲底高度 60m
26日9時 CDT から
風向・風速北東 8m/s
視程10km以上
全天を覆う雲 雲底高度 180m
26日9時 CDT ~ 26日13時 CDT に一時的に
全天の8割程度の雲 雲底高度 300m
全天の8割程度の雲 雲底高度 4270m
TAF AMD CYYQ 251842Z 2518/2618 32008KT P6SM OVC010
TEMPO 2518/2521 1SM BR OVC008
FM252100 36010KT P6SM FEW008 BKN025 OVC180
TEMPO 2521/2604 BKN008 OVC025
FM260400 04012KT 2SM -DZ BR OVC005
TEMPO 2604/2614 P6SM NSW OVC008
PROB30 2606/2614 1/2SM -DZ FG OVC002
FM261400 04015KT P6SM OVC006
TEMPO 2614/2618 BKN010 BKN140 RMK NXT FCST BY 260000Z